sensor_id;sensor_type;location;lat;lon;timestamp;temperature;humidity
12303;DHT22;6214;48.012;7.862;2023-11-19T00:00:15;11.70;99.90
12303;DHT22;6214;48.012;7.862;2023-11-19T00:02:42;11.80;99.90
12303;DHT22;6214;48.012;7.862;2023-11-19T00:05:10;11.80;99.90
12303;DHT22;6214;48.012;7.862;2023-11-19T00:07:48;11.90;99.90
12303;DHT22;6214;48.012;7.862;2023-11-19T00:10:16;11.90;99.90
12303;DHT22;6214;48.012;7.862;2023-11-19T00:12:48;11.90;99.90
12303;DHT22;6214;48.012;7.862;2023-11-19T00:15:17;11.90;99.90
12303;DHT22;6214;48.012;7.862;2023-11-19T00:17:47;11.90;99.90
12303;DHT22;6214;48.012;7.862;2023-11-19T00:20:20;11.90;99.90
12303;DHT22;6214;48.012;7.862;2023-11-19T00:22:48;11.90;99.90
12303;DHT22;6214;48.012;7.862;2023-11-19T00:25:19;11.80;99.90
12303;DHT22;6214;48.012;7.862;2023-11-19T00:27:46;11.80;99.90
12303;DHT22;6214;48.012;7.862;2023-11-19T00:30:14;11.80;99.90
12303;DHT22;6214;48.012;7.862;2023-11-19T00:32:41;11.80;99.90
12303;DHT22;6214;48.012;7.862;2023-11-19T00:35:09;11.70;99.90
12303;DHT22;6214;48.012;7.862;2023-11-19T00:37:42;11.60;99.90
12303;DHT22;6214;48.012;7.862;2023-11-19T00:40:10;11.70;99.90
12303;DHT22;6214;48.012;7.862;2023-11-19T00:42:38;11.60;99.90
12303;DHT22;6214;48.012;7.862;2023-11-19T00:45:05;11.60;99.90
12303;DHT22;6214;48.012;7.862;2023-11-19T00:47:36;11.70;99.90
12303;DHT22;6214;48.012;7.862;2023-11-19T00:50:03;11.70;99.90
12303;DHT22;6214;48.012;7.862;2023-11-19T00:52:31;11.70;99.90
12303;DHT22;6214;48.012;7.862;2023-11-19T00:54:58;11.80;99.90
12303;DHT22;6214;48.012;7.862;2023-11-19T00:57:24;11.90;99.90
12303;DHT22;6214;48.012;7.862;2023-11-19T00:59:53;12.10;99.90
12303;DHT22;6214;48.012;7.862;2023-11-19T01:02:20;12.20;99.90
12303;DHT22;6214;48.012;7.862;2023-11-19T01:04:47;12.20;99.90
12303;DHT22;6214;48.012;7.862;2023-11-19T01:07:14;12.30;99.90
12303;DHT22;6214;48.012;7.862;2023-11-19T01:09:42;12.70;99.90
12303;DHT22;6214;48.012;7.862;2023-11-19T01:12:09;12.40;99.90
12303;DHT22;6214;48.012;7.862;2023-11-19T01:14:37;12.40;99.90
12303;DHT22;6214;48.012;7.862;2023-11-19T01:17:04;12.40;99.90
12303;DHT22;6214;48.012;7.862;2023-11-19T01:19:31;12.40;99.90
12303;DHT22;6214;48.012;7.862;2023-11-19T01:21:58;12.40;99.90
12303;DHT22;6214;48.012;7.862;2023-11-19T01:24:25;12.60;99.90
12303;DHT22;6214;48.012;7.862;2023-11-19T01:26:55;12.60;99.90
12303;DHT22;6214;48.012;7.862;2023-11-19T01:29:22;12.60;99.90
12303;DHT22;6214;48.012;7.862;2023-11-19T01:31:49;12.60;99.90
12303;DHT22;6214;48.012;7.862;2023-11-19T01:34:18;12.60;99.90
12303;DHT22;6214;48.012;7.862;2023-11-19T01:36:46;12.60;99.90
12303;DHT22;6214;48.012;7.862;2023-11-19T01:39:13;12.60;99.90
12303;DHT22;6214;48.012;7.862;2023-11-19T01:41:42;12.60;99.90
12303;DHT22;6214;48.012;7.862;2023-11-19T01:44:09;12.50;99.90
12303;DHT22;6214;48.012;7.862;2023-11-19T01:46:40;12.50;99.90
12303;DHT22;6214;48.012;7.862;2023-11-19T01:49:09;12.50;99.90
12303;DHT22;6214;48.012;7.862;2023-11-19T01:51:36;12.50;99.90
12303;DHT22;6214;48.012;7.862;2023-11-19T01:54:03;12.50;99.90
12303;DHT22;6214;48.012;7.862;2023-11-19T01:56:30;12.40;99.90
12303;DHT22;6214;48.012;7.862;2023-11-19T01:58:58;12.30;99.90
12303;DHT22;6214;48.012;7.862;2023-11-19T02:01:26;12.30;99.90
12303;DHT22;6214;48.012;7.862;2023-11-19T02:03:53;12.20;99.90
12303;DHT22;6214;48.012;7.862;2023-11-19T02:06:20;12.10;99.90
12303;DHT22;6214;48.012;7.862;2023-11-19T02:08:47;11.90;99.90
12303;DHT22;6214;48.012;7.862;2023-11-19T02:11:14;11.70;99.90
12303;DHT22;6214;48.012;7.862;2023-11-19T02:13:41;11.50;99.90
12303;DHT22;6214;48.012;7.862;2023-11-19T02:16:08;11.40;99.90
12303;DHT22;6214;48.012;7.862;2023-11-19T02:18:36;11.30;99.90
12303;DHT22;6214;48.012;7.862;2023-11-19T02:21:03;11.30;99.90
12303;DHT22;6214;48.012;7.862;2023-11-19T02:23:32;11.20;99.90
12303;DHT22;6214;48.012;7.862;2023-11-19T02:28:58;11.20;99.90
12303;DHT22;6214;48.012;7.862;2023-11-19T02:31:25;11.20;99.90
12303;DHT22;6214;48.012;7.862;2023-11-19T02:33:54;11.10;99.90
12303;DHT22;6214;48.012;7.862;2023-11-19T02:36:21;11.20;99.90
12303;DHT22;6214;48.012;7.862;2023-11-19T02:38:48;11.10;99.90
12303;DHT22;6214;48.012;7.862;2023-11-19T02:41:16;11.10;99.90
12303;DHT22;6214;48.012;7.862;2023-11-19T02:43:43;11.20;99.90
12303;DHT22;6214;48.012;7.862;2023-11-19T02:46:10;11.20;99.90
12303;DHT22;6214;48.012;7.862;2023-11-19T02:48:40;11.30;99.90
12303;DHT22;6214;48.012;7.862;2023-11-19T02:51:08;11.30;99.90
12303;DHT22;6214;48.012;7.862;2023-11-19T02:53:36;11.30;99.90
12303;DHT22;6214;48.012;7.862;2023-11-19T02:56:07;11.30;99.90
12303;DHT22;6214;48.012;7.862;2023-11-19T02:58:55;11.40;99.90
12303;DHT22;6214;48.012;7.862;2023-11-19T03:01:23;11.40;99.90
12303;DHT22;6214;48.012;7.862;2023-11-19T03:03:50;11.40;99.90
12303;DHT22;6214;48.012;7.862;2023-11-19T03:06:21;11.40;99.90
12303;DHT22;6214;48.012;7.862;2023-11-19T03:08:48;11.40;99.90
12303;DHT22;6214;48.012;7.862;2023-11-19T03:11:15;11.40;99.90
12303;DHT22;6214;48.012;7.862;2023-11-19T03:13:42;11.40;99.90
12303;DHT22;6214;48.012;7.862;2023-11-19T03:16:09;11.40;99.90
12303;DHT22;6214;48.012;7.862;2023-11-19T03:18:38;11.40;99.90
12303;DHT22;6214;48.012;7.862;2023-11-19T03:21:06;11.40;99.90
12303;DHT22;6214;48.012;7.862;2023-11-19T03:23:35;11.40;99.90
12303;DHT22;6214;48.012;7.862;2023-11-19T03:26:02;11.40;99.90
12303;DHT22;6214;48.012;7.862;2023-11-19T03:28:32;11.40;99.90
12303;DHT22;6214;48.012;7.862;2023-11-19T03:31:00;11.40;99.90
12303;DHT22;6214;48.012;7.862;2023-11-19T03:33:27;11.50;99.90
12303;DHT22;6214;48.012;7.862;2023-11-19T03:35:56;11.50;99.90
12303;DHT22;6214;48.012;7.862;2023-11-19T03:38:24;11.60;99.90
12303;DHT22;6214;48.012;7.862;2023-11-19T03:40:51;11.60;99.90
12303;DHT22;6214;48.012;7.862;2023-11-19T03:43:18;11.60;99.90
12303;DHT22;6214;48.012;7.862;2023-11-19T03:45:48;11.70;99.90
12303;DHT22;6214;48.012;7.862;2023-11-19T03:48:15;11.60;99.90
12303;DHT22;6214;48.012;7.862;2023-11-19T03:50:43;11.60;99.90
12303;DHT22;6214;48.012;7.862;2023-11-19T03:53:12;11.70;99.90
12303;DHT22;6214;48.012;7.862;2023-11-19T03:55:38;11.70;99.90
12303;DHT22;6214;48.012;7.862;2023-11-19T03:58:05;11.70;99.90
12303;DHT22;6214;48.012;7.862;2023-11-19T04:00:33;11.70;99.90
12303;DHT22;6214;48.012;7.862;2023-11-19T04:02:59;11.80;99.90
12303;DHT22;6214;48.012;7.862;2023-11-19T04:05:27;11.70;99.90
12303;DHT22;6214;48.012;7.862;2023-11-19T04:07:54;11.80;99.90
12303;DHT22;6214;48.012;7.862;2023-11-19T04:10:21;11.80;99.90
12303;DHT22;6214;48.012;7.862;2023-11-19T04:12:49;11.70;99.90
12303;DHT22;6214;48.012;7.862;2023-11-19T04:15:16;11.80;99.90
12303;DHT22;6214;48.012;7.862;2023-11-19T04:17:43;11.80;99.90
12303;DHT22;6214;48.012;7.862;2023-11-19T04:20:11;11.80;99.90
12303;DHT22;6214;48.012;7.862;2023-11-19T04:22:41;11.80;99.90
12303;DHT22;6214;48.012;7.862;2023-11-19T04:25:08;11.80;99.90
12303;DHT22;6214;48.012;7.862;2023-11-19T04:27:36;11.80;99.90
12303;DHT22;6214;48.012;7.862;2023-11-19T04:30:03;11.90;99.90
12303;DHT22;6214;48.012;7.862;2023-11-19T04:32:31;12.00;99.90
12303;DHT22;6214;48.012;7.862;2023-11-19T04:34:58;11.90;99.90
12303;DHT22;6214;48.012;7.862;2023-11-19T04:37:25;12.00;99.90
12303;DHT22;6214;48.012;7.862;2023-11-19T04:39:52;12.00;99.90
12303;DHT22;6214;48.012;7.862;2023-11-19T04:42:22;12.00;99.90
12303;DHT22;6214;48.012;7.862;2023-11-19T04:44:49;12.00;99.90
12303;DHT22;6214;48.012;7.862;2023-11-19T04:47:16;12.10;99.90
12303;DHT22;6214;48.012;7.862;2023-11-19T04:49:43;12.10;99.90
12303;DHT22;6214;48.012;7.862;2023-11-19T04:52:10;12.10;99.90
12303;DHT22;6214;48.012;7.862;2023-11-19T04:54:42;12.10;99.90
12303;DHT22;6214;48.012;7.862;2023-11-19T04:57:12;12.10;99.90
12303;DHT22;6214;48.012;7.862;2023-11-19T04:59:39;12.10;99.90
12303;DHT22;6214;48.012;7.862;2023-11-19T05:02:08;12.20;99.90
12303;DHT22;6214;48.012;7.862;2023-11-19T05:04:35;12.20;99.90
12303;DHT22;6214;48.012;7.862;2023-11-19T05:07:02;12.20;99.90
12303;DHT22;6214;48.012;7.862;2023-11-19T05:09:30;12.20;99.90
12303;DHT22;6214;48.012;7.862;2023-11-19T05:11:57;12.30;99.90
12303;DHT22;6214;48.012;7.862;2023-11-19T05:14:24;12.30;99.90
12303;DHT22;6214;48.012;7.862;2023-11-19T05:16:51;12.30;99.90
12303;DHT22;6214;48.012;7.862;2023-11-19T05:19:18;12.40;99.90
12303;DHT22;6214;48.012;7.862;2023-11-19T05:21:45;12.30;99.90
12303;DHT22;6214;48.012;7.862;2023-11-19T05:24:12;12.40;99.90
12303;DHT22;6214;48.012;7.862;2023-11-19T05:26:39;12.40;99.90
12303;DHT22;6214;48.012;7.862;2023-11-19T05:29:07;12.40;99.90
12303;DHT22;6214;48.012;7.862;2023-11-19T05:31:34;12.40;99.90
12303;DHT22;6214;48.012;7.862;2023-11-19T05:34:03;12.40;99.90
12303;DHT22;6214;48.012;7.862;2023-11-19T05:36:31;12.40;99.90
12303;DHT22;6214;48.012;7.862;2023-11-19T05:38:58;12.50;99.90
12303;DHT22;6214;48.012;7.862;2023-11-19T05:41:25;12.50;99.90
12303;DHT22;6214;48.012;7.862;2023-11-19T05:43:52;12.50;99.90
12303;DHT22;6214;48.012;7.862;2023-11-19T05:46:19;12.50;99.90
12303;DHT22;6214;48.012;7.862;2023-11-19T05:48:47;12.50;99.90
12303;DHT22;6214;48.012;7.862;2023-11-19T05:51:14;12.50;99.90
12303;DHT22;6214;48.012;7.862;2023-11-19T05:53:44;12.60;99.90
12303;DHT22;6214;48.012;7.862;2023-11-19T05:56:16;12.60;99.90
12303;DHT22;6214;48.012;7.862;2023-11-19T05:58:48;12.60;99.90
12303;DHT22;6214;48.012;7.862;2023-11-19T06:01:16;12.60;99.90
12303;DHT22;6214;48.012;7.862;2023-11-19T06:03:43;12.60;99.90
12303;DHT22;6214;48.012;7.862;2023-11-19T06:06:14;12.60;99.90
12303;DHT22;6214;48.012;7.862;2023-11-19T06:08:41;12.70;99.90
12303;DHT22;6214;48.012;7.862;2023-11-19T06:11:10;12.70;99.90
12303;DHT22;6214;48.012;7.862;2023-11-19T06:13:41;12.70;99.90
12303;DHT22;6214;48.012;7.862;2023-11-19T06:16:10;12.70;99.90
12303;DHT22;6214;48.012;7.862;2023-11-19T06:18:37;12.80;99.90
12303;DHT22;6214;48.012;7.862;2023-11-19T06:21:04;12.80;99.90
12303;DHT22;6214;48.012;7.862;2023-11-19T06:23:31;12.80;99.90
12303;DHT22;6214;48.012;7.862;2023-11-19T06:25:58;12.80;99.90
12303;DHT22;6214;48.012;7.862;2023-11-19T06:28:25;12.80;99.90
12303;DHT22;6214;48.012;7.862;2023-11-19T06:30:52;12.80;99.90
12303;DHT22;6214;48.012;7.862;2023-11-19T06:33:19;12.80;99.90
12303;DHT22;6214;48.012;7.862;2023-11-19T06:35:46;12.80;99.90
12303;DHT22;6214;48.012;7.862;2023-11-19T06:38:13;12.90;99.90
12303;DHT22;6214;48.012;7.862;2023-11-19T06:40:40;12.90;99.90
12303;DHT22;6214;48.012;7.862;2023-11-19T06:43:08;12.90;99.90
12303;DHT22;6214;48.012;7.862;2023-11-19T06:45:37;12.90;99.90
12303;DHT22;6214;48.012;7.862;2023-11-19T06:48:05;13.00;99.90
12303;DHT22;6214;48.012;7.862;2023-11-19T06:50:32;13.00;99.90
12303;DHT22;6214;48.012;7.862;2023-11-19T06:52:59;13.00;99.90
12303;DHT22;6214;48.012;7.862;2023-11-19T06:55:27;13.10;99.90
12303;DHT22;6214;48.012;7.862;2023-11-19T06:57:54;13.10;99.90
12303;DHT22;6214;48.012;7.862;2023-11-19T07:00:21;13.10;99.90
12303;DHT22;6214;48.012;7.862;2023-11-19T07:02:48;13.20;99.90
12303;DHT22;6214;48.012;7.862;2023-11-19T07:05:16;13.20;99.90
12303;DHT22;6214;48.012;7.862;2023-11-19T07:07:43;13.20;99.90
12303;DHT22;6214;48.012;7.862;2023-11-19T07:10:13;13.20;99.90
12303;DHT22;6214;48.012;7.862;2023-11-19T07:12:40;13.30;99.90
12303;DHT22;6214;48.012;7.862;2023-11-19T07:15:08;13.30;99.90
12303;DHT22;6214;48.012;7.862;2023-11-19T07:17:39;13.30;99.90
12303;DHT22;6214;48.012;7.862;2023-11-19T07:20:07;13.40;99.90
12303;DHT22;6214;48.012;7.862;2023-11-19T07:22:34;13.30;99.90
12303;DHT22;6214;48.012;7.862;2023-11-19T07:25:01;13.40;99.90
12303;DHT22;6214;48.012;7.862;2023-11-19T07:27:29;13.40;99.90
12303;DHT22;6214;48.012;7.862;2023-11-19T07:29:55;13.40;99.90
12303;DHT22;6214;48.012;7.862;2023-11-19T07:32:22;13.40;99.90
12303;DHT22;6214;48.012;7.862;2023-11-19T07:34:49;13.40;99.90
12303;DHT22;6214;48.012;7.862;2023-11-19T07:37:17;13.50;99.90
12303;DHT22;6214;48.012;7.862;2023-11-19T07:39:44;13.50;99.90
12303;DHT22;6214;48.012;7.862;2023-11-19T07:42:10;13.60;99.90
12303;DHT22;6214;48.012;7.862;2023-11-19T07:44:37;13.60;99.90
12303;DHT22;6214;48.012;7.862;2023-11-19T07:47:04;13.60;99.90
12303;DHT22;6214;48.012;7.862;2023-11-19T07:49:31;13.70;99.90
12303;DHT22;6214;48.012;7.862;2023-11-19T07:51:59;13.70;99.90
12303;DHT22;6214;48.012;7.862;2023-11-19T07:54:26;13.80;99.90
12303;DHT22;6214;48.012;7.862;2023-11-19T07:56:52;13.80;99.90
12303;DHT22;6214;48.012;7.862;2023-11-19T07:59:20;13.80;99.90
12303;DHT22;6214;48.012;7.862;2023-11-19T08:01:47;13.80;99.90
12303;DHT22;6214;48.012;7.862;2023-11-19T08:04:14;13.80;99.90
12303;DHT22;6214;48.012;7.862;2023-11-19T08:06:42;13.80;99.90
12303;DHT22;6214;48.012;7.862;2023-11-19T08:09:09;13.80;99.90
12303;DHT22;6214;48.012;7.862;2023-11-19T08:11:44;13.90;99.90
12303;DHT22;6214;48.012;7.862;2023-11-19T08:14:11;13.90;99.90
12303;DHT22;6214;48.012;7.862;2023-11-19T08:16:39;13.90;99.90
12303;DHT22;6214;48.012;7.862;2023-11-19T08:19:07;13.90;99.90
12303;DHT22;6214;48.012;7.862;2023-11-19T08:21:35;13.90;99.90
12303;DHT22;6214;48.012;7.862;2023-11-19T08:24:02;13.90;99.90
12303;DHT22;6214;48.012;7.862;2023-11-19T08:26:30;13.90;99.90
12303;DHT22;6214;48.012;7.862;2023-11-19T08:28:57;13.90;99.90
12303;DHT22;6214;48.012;7.862;2023-11-19T08:31:25;13.90;99.90
12303;DHT22;6214;48.012;7.862;2023-11-19T08:33:52;13.90;99.90
12303;DHT22;6214;48.012;7.862;2023-11-19T08:36:19;14.00;99.90
12303;DHT22;6214;48.012;7.862;2023-11-19T08:41:16;14.10;99.90
12303;DHT22;6214;48.012;7.862;2023-11-19T08:43:45;14.10;99.90
12303;DHT22;6214;48.012;7.862;2023-11-19T08:46:12;14.10;99.90
12303;DHT22;6214;48.012;7.862;2023-11-19T08:48:39;14.10;99.90
12303;DHT22;6214;48.012;7.862;2023-11-19T08:51:06;14.10;99.90
12303;DHT22;6214;48.012;7.862;2023-11-19T08:53:33;14.20;99.90
12303;DHT22;6214;48.012;7.862;2023-11-19T08:56:01;14.20;99.90
12303;DHT22;6214;48.012;7.862;2023-11-19T08:58:30;14.20;99.90
12303;DHT22;6214;48.012;7.862;2023-11-19T09:00:57;14.10;99.90
12303;DHT22;6214;48.012;7.862;2023-11-19T09:03:25;14.10;99.90
12303;DHT22;6214;48.012;7.862;2023-11-19T09:05:53;14.20;99.90
12303;DHT22;6214;48.012;7.862;2023-11-19T09:08:20;14.20;99.90
12303;DHT22;6214;48.012;7.862;2023-11-19T09:10:47;14.10;99.90
12303;DHT22;6214;48.012;7.862;2023-11-19T09:13:14;14.10;99.90
12303;DHT22;6214;48.012;7.862;2023-11-19T09:15:41;14.20;99.90
12303;DHT22;6214;48.012;7.862;2023-11-19T09:18:09;14.20;99.90
12303;DHT22;6214;48.012;7.862;2023-11-19T09:20:36;14.30;99.90
12303;DHT22;6214;48.012;7.862;2023-11-19T09:23:06;14.30;99.90
12303;DHT22;6214;48.012;7.862;2023-11-19T09:25:33;14.30;99.90
12303;DHT22;6214;48.012;7.862;2023-11-19T09:28:03;14.20;99.90
12303;DHT22;6214;48.012;7.862;2023-11-19T09:30:30;14.20;99.90
12303;DHT22;6214;48.012;7.862;2023-11-19T09:33:01;14.20;99.90
12303;DHT22;6214;48.012;7.862;2023-11-19T09:35:28;14.10;99.90
12303;DHT22;6214;48.012;7.862;2023-11-19T09:37:55;14.00;99.90
12303;DHT22;6214;48.012;7.862;2023-11-19T09:40:22;14.00;99.90
12303;DHT22;6214;48.012;7.862;2023-11-19T09:42:49;14.00;99.90
12303;DHT22;6214;48.012;7.862;2023-11-19T09:45:21;14.00;99.90
12303;DHT22;6214;48.012;7.862;2023-11-19T09:47:50;14.10;99.90
12303;DHT22;6214;48.012;7.862;2023-11-19T09:50:19;14.10;99.90
12303;DHT22;6214;48.012;7.862;2023-11-19T09:52:47;14.20;99.90
12303;DHT22;6214;48.012;7.862;2023-11-19T09:55:15;14.20;99.90
12303;DHT22;6214;48.012;7.862;2023-11-19T09:57:42;14.30;99.90
12303;DHT22;6214;48.012;7.862;2023-11-19T10:00:12;14.30;99.90
12303;DHT22;6214;48.012;7.862;2023-11-19T10:02:43;14.50;99.90
12303;DHT22;6214;48.012;7.862;2023-11-19T10:05:14;14.50;99.90
12303;DHT22;6214;48.012;7.862;2023-11-19T10:07:42;14.50;99.90
12303;DHT22;6214;48.012;7.862;2023-11-19T10:10:09;14.50;99.90
12303;DHT22;6214;48.012;7.862;2023-11-19T10:12:41;14.50;99.90
12303;DHT22;6214;48.012;7.862;2023-11-19T10:15:24;14.50;99.90
12303;DHT22;6214;48.012;7.862;2023-11-19T10:17:57;14.40;99.90
12303;DHT22;6214;48.012;7.862;2023-11-19T10:20:24;14.40;99.90
12303;DHT22;6214;48.012;7.862;2023-11-19T10:22:56;14.30;99.90
12303;DHT22;6214;48.012;7.862;2023-11-19T10:25:28;14.30;99.90
12303;DHT22;6214;48.012;7.862;2023-11-19T10:27:56;14.30;99.90
12303;DHT22;6214;48.012;7.862;2023-11-19T10:30:28;14.40;99.90
12303;DHT22;6214;48.012;7.862;2023-11-19T10:33:06;14.50;99.90
12303;DHT22;6214;48.012;7.862;2023-11-19T10:35:35;14.50;99.90
12303;DHT22;6214;48.012;7.862;2023-11-19T10:38:15;14.60;99.90
12303;DHT22;6214;48.012;7.862;2023-11-19T10:40:42;14.90;99.90
12303;DHT22;6214;48.012;7.862;2023-11-19T10:43:09;15.00;99.90
12303;DHT22;6214;48.012;7.862;2023-11-19T10:45:37;15.00;99.90
12303;DHT22;6214;48.012;7.862;2023-11-19T10:48:05;15.10;99.90
12303;DHT22;6214;48.012;7.862;2023-11-19T10:50:37;15.00;99.90
12303;DHT22;6214;48.012;7.862;2023-11-19T10:53:05;15.20;99.90
12303;DHT22;6214;48.012;7.862;2023-11-19T10:55:34;15.10;99.90
12303;DHT22;6214;48.012;7.862;2023-11-19T10:58:11;15.00;99.90
12303;DHT22;6214;48.012;7.862;2023-11-19T11:00:54;14.90;99.90
12303;DHT22;6214;48.012;7.862;2023-11-19T11:03:25;14.90;99.90
12303;DHT22;6214;48.012;7.862;2023-11-19T11:05:53;14.80;99.90
12303;DHT22;6214;48.012;7.862;2023-11-19T11:08:20;14.80;99.90
12303;DHT22;6214;48.012;7.862;2023-11-19T11:13:25;15.40;99.90
12303;DHT22;6214;48.012;7.862;2023-11-19T11:15:55;15.60;99.90
12303;DHT22;6214;48.012;7.862;2023-11-19T11:18:25;15.60;99.90
12303;DHT22;6214;48.012;7.862;2023-11-19T11:20:58;15.60;99.90
12303;DHT22;6214;48.012;7.862;2023-11-19T11:26:32;15.90;99.90
12303;DHT22;6214;48.012;7.862;2023-11-19T11:29:12;16.00;99.90
12303;DHT22;6214;48.012;7.862;2023-11-19T11:34:42;15.30;99.90
12303;DHT22;6214;48.012;7.862;2023-11-19T11:37:31;15.30;99.90
12303;DHT22;6214;48.012;7.862;2023-11-19T11:40:00;15.30;99.90
12303;DHT22;6214;48.012;7.862;2023-11-19T11:42:33;15.40;99.90
12303;DHT22;6214;48.012;7.862;2023-11-19T11:45:11;15.40;99.90
12303;DHT22;6214;48.012;7.862;2023-11-19T11:50:10;15.30;99.90
12303;DHT22;6214;48.012;7.862;2023-11-19T11:55:35;15.20;99.90
12303;DHT22;6214;48.012;7.862;2023-11-19T11:58:06;15.20;99.90
12303;DHT22;6214;48.012;7.862;2023-11-19T12:00:37;15.20;99.90
12303;DHT22;6214;48.012;7.862;2023-11-19T12:03:06;15.20;99.90
12303;DHT22;6214;48.012;7.862;2023-11-19T12:05:44;15.30;99.90
12303;DHT22;6214;48.012;7.862;2023-11-19T12:08:15;15.20;99.90
12303;DHT22;6214;48.012;7.862;2023-11-19T12:10:53;15.30;99.90
12303;DHT22;6214;48.012;7.862;2023-11-19T12:13:21;15.40;99.90
12303;DHT22;6214;48.012;7.862;2023-11-19T12:18:30;15.30;99.90
12303;DHT22;6214;48.012;7.862;2023-11-19T12:20:59;15.30;99.90
12303;DHT22;6214;48.012;7.862;2023-11-19T12:23:30;15.40;99.90
12303;DHT22;6214;48.012;7.862;2023-11-19T12:25:58;15.40;99.90
12303;DHT22;6214;48.012;7.862;2023-11-19T12:28:25;15.60;99.90
12303;DHT22;6214;48.012;7.862;2023-11-19T12:31:09;15.60;99.90
12303;DHT22;6214;48.012;7.862;2023-11-19T12:33:37;15.60;99.90
12303;DHT22;6214;48.012;7.862;2023-11-19T12:36:05;15.60;99.90
12303;DHT22;6214;48.012;7.862;2023-11-19T12:38:32;15.60;99.90
12303;DHT22;6214;48.012;7.862;2023-11-19T12:41:03;15.50;99.90
12303;DHT22;6214;48.012;7.862;2023-11-19T12:43:31;15.70;99.90
12303;DHT22;6214;48.012;7.862;2023-11-19T12:45:58;15.80;99.90
12303;DHT22;6214;48.012;7.862;2023-11-19T12:48:25;15.80;99.90
12303;DHT22;6214;48.012;7.862;2023-11-19T12:50:58;15.80;99.90
12303;DHT22;6214;48.012;7.862;2023-11-19T12:53:29;15.90;99.90
12303;DHT22;6214;48.012;7.862;2023-11-19T12:55:55;15.80;99.90
12303;DHT22;6214;48.012;7.862;2023-11-19T12:58:35;16.00;99.90
12303;DHT22;6214;48.012;7.862;2023-11-19T13:01:06;15.90;99.90
12303;DHT22;6214;48.012;7.862;2023-11-19T13:03:38;15.80;99.90
12303;DHT22;6214;48.012;7.862;2023-11-19T13:11:12;15.50;99.90
12303;DHT22;6214;48.012;7.862;2023-11-19T13:13:59;15.50;99.90
12303;DHT22;6214;48.012;7.862;2023-11-19T13:16:27;15.30;99.90
12303;DHT22;6214;48.012;7.862;2023-11-19T13:18:55;15.20;99.90
12303;DHT22;6214;48.012;7.862;2023-11-19T13:21:22;15.10;99.90
12303;DHT22;6214;48.012;7.862;2023-11-19T13:23:49;15.10;99.90
12303;DHT22;6214;48.012;7.862;2023-11-19T13:26:16;15.10;99.90
12303;DHT22;6214;48.012;7.862;2023-11-19T13:28:43;15.00;99.90
12303;DHT22;6214;48.012;7.862;2023-11-19T13:31:10;15.00;99.90
12303;DHT22;6214;48.012;7.862;2023-11-19T13:33:37;15.00;99.90
12303;DHT22;6214;48.012;7.862;2023-11-19T13:36:05;14.90;99.90
12303;DHT22;6214;48.012;7.862;2023-11-19T13:38:35;14.90;99.90
12303;DHT22;6214;48.012;7.862;2023-11-19T13:41:03;14.90;99.90
12303;DHT22;6214;48.012;7.862;2023-11-19T13:43:33;14.90;99.90
12303;DHT22;6214;48.012;7.862;2023-11-19T13:46:00;14.90;99.90
12303;DHT22;6214;48.012;7.862;2023-11-19T13:48:27;14.90;99.90
12303;DHT22;6214;48.012;7.862;2023-11-19T13:50:56;14.90;99.90
12303;DHT22;6214;48.012;7.862;2023-11-19T13:53:22;14.90;99.90
12303;DHT22;6214;48.012;7.862;2023-11-19T13:55:50;14.90;99.90
12303;DHT22;6214;48.012;7.862;2023-11-19T13:58:17;14.90;99.90
12303;DHT22;6214;48.012;7.862;2023-11-19T14:00:44;15.00;99.90
12303;DHT22;6214;48.012;7.862;2023-11-19T14:03:11;15.00;99.90
12303;DHT22;6214;48.012;7.862;2023-11-19T14:05:39;14.90;99.90
12303;DHT22;6214;48.012;7.862;2023-11-19T14:08:08;14.90;99.90
12303;DHT22;6214;48.012;7.862;2023-11-19T14:10:51;14.90;99.90
12303;DHT22;6214;48.012;7.862;2023-11-19T14:13:18;14.90;99.90
12303;DHT22;6214;48.012;7.862;2023-11-19T14:15:45;14.90;99.90
12303;DHT22;6214;48.012;7.862;2023-11-19T14:18:16;14.90;99.90
12303;DHT22;6214;48.012;7.862;2023-11-19T14:20:42;14.90;99.90
12303;DHT22;6214;48.012;7.862;2023-11-19T14:23:11;14.90;99.90
12303;DHT22;6214;48.012;7.862;2023-11-19T14:25:38;14.90;99.90
12303;DHT22;6214;48.012;7.862;2023-11-19T14:28:05;14.90;99.90
12303;DHT22;6214;48.012;7.862;2023-11-19T14:30:33;14.90;99.90
12303;DHT22;6214;48.012;7.862;2023-11-19T14:33:01;14.90;99.90
12303;DHT22;6214;48.012;7.862;2023-11-19T14:35:28;14.90;99.90
12303;DHT22;6214;48.012;7.862;2023-11-19T14:37:57;14.90;99.90
12303;DHT22;6214;48.012;7.862;2023-11-19T14:40:24;14.80;99.90
12303;DHT22;6214;48.012;7.862;2023-11-19T14:43:08;14.90;99.90
12303;DHT22;6214;48.012;7.862;2023-11-19T14:45:39;14.90;99.90
12303;DHT22;6214;48.012;7.862;2023-11-19T14:48:15;14.80;99.90
12303;DHT22;6214;48.012;7.862;2023-11-19T14:50:44;14.80;99.90
12303;DHT22;6214;48.012;7.862;2023-11-19T14:53:11;14.70;99.90
12303;DHT22;6214;48.012;7.862;2023-11-19T14:55:38;14.70;99.90
12303;DHT22;6214;48.012;7.862;2023-11-19T14:58:05;14.60;99.90
12303;DHT22;6214;48.012;7.862;2023-11-19T15:00:37;14.60;99.90
12303;DHT22;6214;48.012;7.862;2023-11-19T15:03:04;14.50;99.90
12303;DHT22;6214;48.012;7.862;2023-11-19T15:05:33;14.60;99.90
12303;DHT22;6214;48.012;7.862;2023-11-19T15:08:01;14.60;99.90
12303;DHT22;6214;48.012;7.862;2023-11-19T15:10:29;14.60;99.90
12303;DHT22;6214;48.012;7.862;2023-11-19T15:12:56;14.60;99.90
12303;DHT22;6214;48.012;7.862;2023-11-19T15:15:24;14.50;99.90
12303;DHT22;6214;48.012;7.862;2023-11-19T15:17:54;14.50;99.90
12303;DHT22;6214;48.012;7.862;2023-11-19T15:20:21;14.40;99.90
12303;DHT22;6214;48.012;7.862;2023-11-19T15:22:48;14.40;99.90
12303;DHT22;6214;48.012;7.862;2023-11-19T15:25:15;14.30;99.90
12303;DHT22;6214;48.012;7.862;2023-11-19T15:27:42;14.30;99.90
12303;DHT22;6214;48.012;7.862;2023-11-19T15:30:09;14.20;99.90
12303;DHT22;6214;48.012;7.862;2023-11-19T15:32:37;14.10;99.90
12303;DHT22;6214;48.012;7.862;2023-11-19T15:35:05;14.10;99.90
12303;DHT22;6214;48.012;7.862;2023-11-19T15:37:34;14.10;99.90
12303;DHT22;6214;48.012;7.862;2023-11-19T15:40:02;14.10;99.90
12303;DHT22;6214;48.012;7.862;2023-11-19T15:42:35;14.00;99.90
12303;DHT22;6214;48.012;7.862;2023-11-19T15:45:02;13.90;99.90
12303;DHT22;6214;48.012;7.862;2023-11-19T15:47:33;13.90;99.90
12303;DHT22;6214;48.012;7.862;2023-11-19T15:50:04;13.90;99.90
12303;DHT22;6214;48.012;7.862;2023-11-19T15:52:31;13.80;99.90
12303;DHT22;6214;48.012;7.862;2023-11-19T15:54:58;13.90;99.90
12303;DHT22;6214;48.012;7.862;2023-11-19T15:57:25;13.80;99.90
12303;DHT22;6214;48.012;7.862;2023-11-19T15:59:53;13.80;99.90
12303;DHT22;6214;48.012;7.862;2023-11-19T16:02:20;13.80;99.90
12303;DHT22;6214;48.012;7.862;2023-11-19T16:04:48;13.70;99.90
12303;DHT22;6214;48.012;7.862;2023-11-19T16:07:15;13.70;99.90
12303;DHT22;6214;48.012;7.862;2023-11-19T16:09:42;13.70;99.90
12303;DHT22;6214;48.012;7.862;2023-11-19T16:12:10;13.70;99.90
12303;DHT22;6214;48.012;7.862;2023-11-19T16:14:37;13.70;99.90
12303;DHT22;6214;48.012;7.862;2023-11-19T16:17:04;13.70;99.90
12303;DHT22;6214;48.012;7.862;2023-11-19T16:19:32;13.60;99.90